Time;durP1;ratioP1;P1;durP2;ratioP2;P2;SDS_P1;SDS_P2;PMS_P1;PMS_P2;Temp;Humidity;BMP_temperature;BMP_pressure;BME280_temperature;BME280_humidity;BME280_pressure;Samples;Min_cycle;Max_cycle;Signal;HPM_P1;HPM_P2
2023/01/20 00:00:32;;;;;;;1.40;1.10;;;;;;;16.69;50.43;101050.19;4855394;29;20049;-79
2023/01/20 00:02:57;;;;;;;1.73;1.30;;;;;;;16.67;50.16;101035.47;4854599;29;20045;-79
2023/01/20 00:05:23;;;;;;;2.88;1.38;;;;;;;16.67;50.25;101047.59;4840855;29;20042;-80
2023/01/20 00:07:48;;;;;;;1.80;1.10;;;;;;;16.67;50.22;101051.06;4840250;29;20038;-79
2023/01/20 00:10:14;;;;;;;1.52;0.95;;;;;;;16.67;50.37;101056.25;4840156;29;20042;-79
2023/01/20 00:12:39;;;;;;;2.65;1.23;;;;;;;16.66;50.16;101053.69;4856049;29;20042;-79
2023/01/20 00:15:06;;;;;;;1.85;1.13;;;;;;;16.65;50.01;101051.94;4855446;29;20053;-78
2023/01/20 00:17:31;;;;;;;2.60;1.20;;;;;;;16.66;50.17;101056.28;4854840;29;20511;-79
2023/01/20 00:19:56;;;;;;;1.92;1.23;;;;;;;16.66;50.12;101054.53;4867666;29;20045;-78
2023/01/20 00:22:22;;;;;;;4.00;1.00;;;;;;;16.65;50.12;101045.00;4854205;29;20415;-79
2023/01/20 00:24:47;;;;;;;1.67;1.20;;;;;;;16.65;49.92;101054.53;4870290;29;20048;-79
2023/01/20 00:27:14;;;;;;;2.63;1.08;;;;;;;16.64;50.30;101058.88;4838505;29;20048;-79
2023/01/20 00:29:42;;;;;;;2.80;1.02;;;;;;;16.64;50.16;101068.41;4850331;29;20069;-78
2023/01/20 00:32:09;;;;;;;2.65;1.30;;;;;;;16.63;50.04;101062.31;4866602;29;20488;-79
2023/01/20 00:34:34;;;;;;;1.88;1.10;;;;;;;16.64;50.23;101069.25;4835461;29;20052;-79
2023/01/20 00:36:59;;;;;;;1.85;1.10;;;;;;;16.64;50.17;101068.41;4850924;29;20037;-78
2023/01/20 00:39:25;;;;;;;1.25;0.90;;;;;;;16.64;50.09;101068.41;4835307;29;20043;-78
2023/01/20 00:41:50;;;;;;;1.77;0.98;;;;;;;16.64;50.23;101060.63;4850095;29;20073;-79
2023/01/20 00:44:15;;;;;;;1.45;0.93;;;;;;;16.63;50.08;101071.84;4849895;29;20052;-78
2023/01/20 00:46:41;;;;;;;2.15;1.00;;;;;;;16.62;50.09;101063.19;4834530;29;20136;-78
2023/01/20 00:49:07;;;;;;;1.92;0.90;;;;;;;16.62;50.10;101058.00;4834352;29;20090;-78
2023/01/20 00:51:33;;;;;;;2.05;0.98;;;;;;;16.63;50.22;101054.53;4865176;29;20445;-78
2023/01/20 00:53:58;;;;;;;1.60;1.10;;;;;;;16.61;50.08;101051.09;4849401;29;20057;-78
2023/01/20 00:56:23;;;;;;;2.22;0.90;;;;;;;16.61;50.01;101048.50;4849219;29;20384;-79
2023/01/20 00:58:49;;;;;;;1.08;0.80;;;;;;;16.61;50.09;101045.91;4864600;29;20052;-78
2023/01/20 01:01:14;;;;;;;1.23;0.93;;;;;;;16.61;50.06;101048.50;4848292;29;20041;-79
2023/01/20 01:03:39;;;;;;;1.10;0.80;;;;;;;16.60;50.05;101046.75;4833293;29;20037;-78
2023/01/20 01:06:11;;;;;;;1.60;0.88;;;;;;;16.60;50.02;101051.94;4863567;29;20041;-78
2023/01/20 01:08:36;;;;;;;2.30;0.90;;;;;;;16.61;49.94;101050.22;4879497;29;20037;-79
2023/01/20 01:11:02;;;;;;;1.48;0.85;;;;;;;16.60;49.82;101058.88;4848935;29;20652;-78
2023/01/20 01:13:27;;;;;;;1.63;0.80;;;;;;;16.59;50.03;101065.81;4833462;29;20041;-78
2023/01/20 01:15:53;;;;;;;1.65;0.95;;;;;;;16.60;49.87;101059.75;4848779;29;20041;-77
2023/01/20 01:18:18;;;;;;;1.70;0.85;;;;;;;16.59;49.88;101063.22;4864001;29;20504;-78
2023/01/20 01:20:43;;;;;;;2.20;1.10;;;;;;;16.59;49.84;101062.34;4848410;29;20093;-78
2023/01/20 01:23:10;;;;;;;1.75;0.80;;;;;;;16.59;50.14;101072.72;4848279;29;20056;-78
2023/01/20 01:25:38;;;;;;;2.00;1.02;;;;;;;16.58;49.96;101079.66;4863676;29;20509;-78
2023/01/20 01:28:04;;;;;;;1.20;0.73;;;;;;;16.58;49.91;101074.47;4850622;29;20037;-83
2023/01/20 01:30:29;;;;;;;1.17;0.70;;;;;;;16.56;50.00;101077.94;4869780;29;20055;-83
2023/01/20 01:32:54;;;;;;;1.52;0.90;;;;;;;16.56;49.86;101072.75;4884634;29;20033;-85
2023/01/20 01:35:20;;;;;;;1.17;0.70;;;;;;;16.56;49.83;101083.13;4883681;29;20029;-83
2023/01/20 01:37:45;;;;;;;2.53;1.00;;;;;;;16.56;49.76;101090.94;4884595;29;20025;-84
2023/01/20 01:40:11;;;;;;;1.17;0.80;;;;;;;16.56;50.06;101088.34;4853127;29;20108;-83
2023/01/20 01:42:37;;;;;;;2.20;0.90;;;;;;;16.55;49.92;101089.19;4868548;29;20033;-83
2023/01/20 01:45:11;;;;;;;1.77;0.80;;;;;;;16.54;49.88;101096.13;4859744;29;20041;-85
2023/01/20 01:47:47;;;;;;;1.20;0.70;;;;;;;16.54;50.09;101096.13;4883919;29;20038;-84
2023/01/20 01:50:18;;;;;;;1.20;0.80;;;;;;;16.54;49.63;101096.13;4883853;29;20440;-84
2023/01/20 01:52:47;;;;;;;2.88;0.80;;;;;;;16.55;49.62;101091.78;4886602;29;20060;-84
2023/01/20 01:55:15;;;;;;;1.00;0.70;;;;;;;16.56;49.83;101099.59;4887297;29;20043;-83
2023/01/20 01:57:41;;;;;;;0.93;0.60;;;;;;;16.56;49.84;101091.78;4888096;29;20104;-85
2023/01/20 02:00:07;;;;;;;1.60;0.77;;;;;;;16.54;49.99;101090.91;4872676;29;20041;-84
2023/01/20 02:02:34;;;;;;;2.22;0.90;;;;;;;16.56;49.84;101091.78;4887963;29;20052;-85
2023/01/20 02:05:00;;;;;;;0.98;0.70;;;;;;;16.57;49.98;101097.84;4873219;29;20021;-84
2023/01/20 02:07:26;;;;;;;1.88;0.90;;;;;;;16.56;49.94;101091.78;4888160;29;20041;-83
2023/01/20 02:09:51;;;;;;;1.27;0.80;;;;;;;16.55;49.93;101087.47;4872939;29;20050;-83
2023/01/20 02:12:20;;;;;;;1.80;0.90;;;;;;;16.56;49.74;101088.34;4872736;29;20089;-84
2023/01/20 02:17:32;;;;;;;1.42;0.93;;;;;;;16.56;50.05;101084.00;5202635;23;20046;-85
2023/01/20 02:20:17;;;;;;;0.88;0.73;;;;;;;16.58;49.81;101091.78;4888801;29;20041;-84
2023/01/20 02:23:00;;;;;;;1.25;0.80;;;;;;;16.56;49.90;101089.19;4888412;29;20096;-83
2023/01/20 02:25:47;;;;;;;1.80;1.02;;;;;;;16.56;49.93;101084.00;4887982;29;20013;-82
2023/01/20 02:28:13;;;;;;;1.25;0.85;;;;;;;16.56;49.78;101094.38;4882371;29;20021;-85
2023/01/20 02:30:50;;;;;;;1.08;0.88;;;;;;;16.57;49.99;101092.66;4888055;29;20057;-83
2023/01/20 02:33:25;;;;;;;1.42;0.95;;;;;;;16.57;49.97;101087.44;4888327;29;20097;-84
2023/01/20 02:35:56;;;;;;;1.67;1.00;;;;;;;16.56;50.07;101090.94;4888555;29;20025;-84
2023/01/20 02:38:34;;;;;;;1.60;1.00;;;;;;;16.57;49.87;101090.03;4888427;29;20026;-84
2023/01/20 02:41:37;;;;;;;1.27;0.90;;;;;;;16.58;49.85;101086.59;4888154;29;20041;-84
2023/01/20 02:44:31;;;;;;;2.30;1.30;;;;;;;16.57;49.79;101092.66;4888321;29;20030;-84
2023/01/20 02:47:01;;;;;;;1.38;1.05;;;;;;;16.56;49.85;101083.13;4888177;29;20058;-84
2023/01/20 02:49:35;;;;;;;1.70;1.23;;;;;;;16.56;49.81;101084.00;4888143;29;20038;-83
2023/01/20 02:52:15;;;;;;;1.75;1.10;;;;;;;16.56;49.92;101084.00;4888045;29;20038;-84
2023/01/20 02:54:45;;;;;;;1.65;1.10;;;;;;;16.55;50.13;101082.28;4887530;29;20037;-83
2023/01/20 02:57:17;;;;;;;1.63;1.30;;;;;;;16.56;49.85;101080.53;4888356;29;20029;-83
2023/01/20 02:59:46;;;;;;;1.80;1.20;;;;;;;16.56;49.98;101084.00;4888262;29;20090;-82
2023/01/20 03:02:20;;;;;;;2.00;1.20;;;;;;;16.57;50.04;101082.25;4888068;29;20054;-83
2023/01/20 03:05:07;;;;;;;2.03;1.23;;;;;;;16.57;50.06;101082.25;4888234;29;20026;-84
2023/01/20 03:07:36;;;;;;;1.98;1.30;;;;;;;16.58;50.01;101084.84;4888133;29;20026;-82
2023/01/20 03:10:06;;;;;;;1.70;1.20;;;;;;;16.56;50.00;101084.00;4879664;29;20030;-85
2023/01/20 03:12:44;;;;;;;2.13;1.52;;;;;;;16.58;49.80;101086.59;4887475;29;20034;-84
2023/01/20 03:15:11;;;;;;;1.33;1.00;;;;;;;16.58;49.93;101079.66;4887633;29;20068;-81
2023/01/20 03:17:36;;;;;;;2.13;1.40;;;;;;;16.57;49.92;101079.66;4887215;29;20102;-84
2023/01/20 03:20:03;;;;;;;1.90;1.20;;;;;;;16.58;50.09;101084.84;4887575;29;20061;-85
2023/01/20 03:22:30;;;;;;;2.08;1.20;;;;;;;16.57;49.87;101079.66;4887602;29;20034;-84
2023/01/20 03:24:57;;;;;;;1.80;1.33;;;;;;;16.58;49.93;101078.81;4888318;29;20021;-84
2023/01/20 03:27:24;;;;;;;1.88;1.20;;;;;;;16.59;49.78;101080.53;4887254;29;20049;-82
2023/01/20 03:29:50;;;;;;;2.25;1.50;;;;;;;16.57;50.13;101079.66;4886715;29;20045;-84
2023/01/20 03:32:21;;;;;;;1.65;1.30;;;;;;;16.58;49.69;101078.81;4887421;29;20025;-83
2023/01/20 03:34:47;;;;;;;2.03;1.30;;;;;;;16.59;50.05;101078.81;4887546;29;20033;-84
2023/01/20 03:37:13;;;;;;;1.77;1.30;;;;;;;16.58;50.09;101078.81;4887647;29;20017;-85
2023/01/20 03:39:39;;;;;;;1.73;1.40;;;;;;;16.58;50.17;101092.66;4887576;29;20063;-83
2023/01/20 03:42:12;;;;;;;1.73;1.20;;;;;;;16.57;50.05;101092.66;4887295;29;20021;-83
2023/01/20 03:47:50;;;;;;;2.10;1.50;;;;;;;16.58;50.05;101113.44;4850518;29;20114;-83
2023/01/20 03:50:39;;;;;;;2.22;1.50;;;;;;;16.58;50.12;101113.44;4834229;29;20077;-82
2023/01/20 03:53:32;;;;;;;1.55;1.30;;;;;;;16.58;50.22;101117.78;4834435;29;20041;-84
2023/01/20 03:56:11;;;;;;;1.93;1.57;;;;;;;16.56;50.10;101117.75;4831507;29;20037;-80
2023/01/20 03:58:40;;;;;;;2.20;1.30;;;;;;;16.56;50.18;101116.91;4831472;29;20034;-80
2023/01/20 04:01:09;;;;;;;4.15;1.70;;;;;;;16.56;50.05;101127.31;4831095;29;20038;-80
2023/01/20 04:03:39;;;;;;;1.88;1.38;;;;;;;16.56;49.95;101116.91;4847666;29;20510;-80
2023/01/20 04:06:08;;;;;;;1.85;1.38;;;;;;;16.55;50.14;101117.75;4847459;29;20048;-80
2023/01/20 04:08:36;;;;;;;2.33;1.40;;;;;;;16.54;50.07;101116.03;4831019;29;20034;-80
2023/01/20 04:11:07;;;;;;;1.63;1.38;;;;;;;16.54;50.04;101121.25;4815809;29;20034;-79
2023/01/20 04:13:33;;;;;;;2.85;1.30;;;;;;;16.53;50.32;101119.53;4830796;29;20081;-80
2023/01/20 04:16:00;;;;;;;2.28;1.52;;;;;;;16.53;49.96;101120.38;4847268;29;20061;-80
2023/01/20 04:18:26;;;;;;;2.83;1.60;;;;;;;16.53;49.96;101120.38;4846615;29;20041;-78
2023/01/20 04:21:00;;;;;;;1.90;1.38;;;;;;;16.53;50.13;101124.72;4800163;29;20034;-80
2023/01/20 04:23:30;;;;;;;1.90;1.40;;;;;;;16.52;50.26;101128.16;4846704;29;20067;-80
2023/01/20 04:25:55;;;;;;;2.20;1.50;;;;;;;16.52;50.18;101123.84;4845491;29;20489;-80
2023/01/20 04:28:20;;;;;;;2.10;1.40;;;;;;;16.52;50.01;101118.63;4829671;29;20048;-80
2023/01/20 04:30:46;;;;;;;2.10;1.50;;;;;;;16.53;50.21;101119.53;4815017;29;20042;-80
2023/01/20 04:33:12;;;;;;;1.65;1.33;;;;;;;16.55;50.07;101125.56;4800039;29;20038;-81
2023/01/20 04:35:37;;;;;;;1.75;1.20;;;;;;;16.53;50.20;101122.13;4829637;29;20400;-78
2023/01/20 04:38:03;;;;;;;2.65;1.20;;;;;;;16.53;50.17;101114.31;4814587;29;20073;-78
2023/01/20 04:40:29;;;;;;;1.73;1.38;;;;;;;16.54;50.10;101109.09;4814357;29;20493;-80
2023/01/20 04:42:54;;;;;;;1.60;1.25;;;;;;;16.54;49.95;101103.06;4813346;29;20141;-80
2023/01/20 04:45:20;;;;;;;1.85;1.40;;;;;;;16.54;50.23;101103.06;4829429;29;20065;-78
2023/01/20 04:47:45;;;;;;;1.80;1.20;;;;;;;16.55;50.06;101102.16;4814447;29;20041;-79
2023/01/20 04:50:12;;;;;;;1.65;1.30;;;;;;;16.54;50.11;101114.31;4814363;29;20099;-80
2023/01/20 04:52:38;;;;;;;2.20;1.45;;;;;;;16.56;50.07;101111.72;4814850;29;20129;-80
2023/01/20 04:55:04;;;;;;;1.70;1.20;;;;;;;16.55;50.25;101122.97;4830280;29;20069;-78
2023/01/20 04:57:29;;;;;;;2.15;1.23;;;;;;;16.57;50.12;101118.63;4829946;29;20512;-77
2023/01/20 04:59:54;;;;;;;2.03;1.27;;;;;;;16.55;50.11;101126.44;4799243;29;20038;-80
2023/01/20 05:02:20;;;;;;;2.13;1.23;;;;;;;16.55;50.13;101121.25;4814243;29;20049;-80
2023/01/20 05:04:45;;;;;;;1.60;1.40;;;;;;;16.57;50.20;101129.03;4829786;29;20037;-80
2023/01/20 05:07:11;;;;;;;1.60;1.20;;;;;;;16.57;50.23;101124.72;4814318;29;20046;-80
2023/01/20 05:09:36;;;;;;;2.00;1.35;;;;;;;16.55;50.14;101123.84;4829579;29;20046;-80
2023/01/20 05:12:03;;;;;;;2.72;1.20;;;;;;;16.56;50.17;101124.69;4799379;29;20038;-79
2023/01/20 05:14:28;;;;;;;2.10;1.48;;;;;;;16.57;49.98;101123.81;4814608;29;20042;-80
2023/01/20 05:16:54;;;;;;;2.38;1.20;;;;;;;16.57;50.22;101127.31;4845499;29;20389;-79
2023/01/20 05:19:19;;;;;;;1.88;1.23;;;;;;;16.57;50.28;101126.41;4800899;29;20102;-80
2023/01/20 05:21:44;;;;;;;2.08;1.45;;;;;;;16.57;49.96;101123.81;4816393;29;20050;-80
2023/01/20 05:24:10;;;;;;;1.40;1.17;;;;;;;16.56;50.15;101122.97;4831398;29;20037;-80
2023/01/20 05:26:35;;;;;;;1.77;1.38;;;;;;;16.58;50.20;101125.56;4801627;29;20044;-80
2023/01/20 05:29:01;;;;;;;2.58;1.40;;;;;;;16.56;50.20;101120.38;4847561;29;20045;-78
2023/01/20 05:31:27;;;;;;;2.05;1.27;;;;;;;16.58;50.20;101120.38;4816356;29;20038;-78
2023/01/20 05:33:52;;;;;;;1.50;1.10;;;;;;;16.58;50.23;101122.97;4815797;29;20046;-80
2023/01/20 05:36:18;;;;;;;1.35;1.13;;;;;;;16.58;50.30;101126.44;4815981;29;20041;-78
2023/01/20 05:38:46;;;;;;;1.60;1.20;;;;;;;16.57;50.22;101123.81;4815529;29;20038;-80
2023/01/20 05:41:12;;;;;;;1.40;1.20;;;;;;;16.58;50.30;101123.84;4815564;29;20065;-80
2023/01/20 05:43:37;;;;;;;1.35;1.10;;;;;;;16.59;50.12;101119.50;4815043;29;20405;-80
2023/01/20 05:46:04;;;;;;;1.95;1.40;;;;;;;16.59;50.30;101122.09;4817586;29;20056;-79
2023/01/20 05:48:29;;;;;;;1.65;1.27;;;;;;;16.58;50.42;101126.44;4823247;29;20053;-79
2023/01/20 05:50:54;;;;;;;1.98;1.10;;;;;;;16.59;50.20;101127.28;4822900;29;20063;-78
2023/01/20 05:53:20;;;;;;;1.42;1.17;;;;;;;16.59;50.10;101122.09;4838604;29;20038;-77
2023/01/20 05:55:45;;;;;;;1.33;1.02;;;;;;;16.58;50.25;101126.44;4822640;29;20049;-79
2023/01/20 05:58:11;;;;;;;1.67;1.25;;;;;;;16.58;50.29;101136.81;4820288;29;20042;-79
2023/01/20 06:00:36;;;;;;;2.53;1.20;;;;;;;16.59;50.44;101137.69;4819309;29;20446;-78
2023/01/20 06:03:02;;;;;;;1.90;1.25;;;;;;;16.59;50.19;101135.09;4818351;29;20098;-80
2023/01/20 06:05:28;;;;;;;1.90;1.30;;;;;;;16.59;50.37;101129.88;4832483;29;20049;-80
2023/01/20 06:07:54;;;;;;;1.92;1.50;;;;;;;16.59;50.22;101132.47;4832839;29;20046;-80
2023/01/20 06:10:20;;;;;;;1.67;1.40;;;;;;;16.58;50.19;101133.38;4848609;29;20393;-79
2023/01/20 06:12:52;;;;;;;1.77;1.42;;;;;;;16.59;49.96;101130.78;4815824;29;20039;-80
2023/01/20 06:15:17;;;;;;;3.00;1.85;;;;;;;16.60;50.25;101131.63;4847711;29;20044;-80
2023/01/20 06:17:44;;;;;;;5.75;2.85;;;;;;;16.60;50.26;101139.44;4836507;29;20041;-85
2023/01/20 06:20:15;;;;;;;11.05;5.05;;;;;;;16.60;50.25;101142.03;4833916;29;20033;-81
2023/01/20 06:22:41;;;;;;;11.95;4.43;;;;;;;16.61;50.17;101136.84;4834489;29;20042;-80
2023/01/20 06:25:07;;;;;;;11.20;4.35;;;;;;;16.69;50.51;101130.75;4846779;29;20401;-81
2023/01/20 06:27:33;;;;;;;15.05;4.00;;;;;;;16.85;50.98;101137.69;4814510;29;20038;-79
2023/01/20 06:29:58;;;;;;;9.48;3.90;;;;;;;16.84;50.74;101130.78;4815425;29;20520;-79
2023/01/20 06:32:24;;;;;;;12.52;4.00;;;;;;;16.84;50.78;101128.16;4814033;29;20106;-78
2023/01/20 06:34:51;;;;;;;7.80;3.60;;;;;;;16.85;50.50;101135.09;4814852;29;20052;-80
2023/01/20 06:37:17;;;;;;;9.85;3.65;;;;;;;16.84;50.74;101131.63;4799470;29;20065;-80
2023/01/20 06:39:42;;;;;;;6.65;3.63;;;;;;;16.85;50.81;101133.38;4813756;29;20053;-79
2023/01/20 06:42:08;;;;;;;9.27;3.92;;;;;;;16.85;50.83;101140.28;4813213;29;20118;-79
2023/01/20 06:44:33;;;;;;;7.50;3.33;;;;;;;16.87;50.91;101143.75;4814183;29;20068;-80
2023/01/20 06:46:59;;;;;;;7.22;3.45;;;;;;;16.89;51.00;101146.34;4844038;29;20061;-79
2023/01/20 06:49:24;;;;;;;11.60;3.67;;;;;;;16.89;50.86;101134.22;4827643;29;20057;-80
2023/01/20 06:51:50;;;;;;;13.15;5.43;;;;;;;16.97;50.97;101152.41;4844524;29;20066;-81
2023/01/20 06:54:16;;;;;;;16.27;5.50;;;;;;;16.95;50.92;101148.94;4829007;29;20030;-80
2023/01/20 06:56:41;;;;;;;14.38;5.97;;;;;;;16.92;51.10;101149.81;4797252;29;20038;-79
2023/01/20 06:59:09;;;;;;;16.00;5.40;;;;;;;16.90;51.21;101151.56;4827322;29;20038;-80
2023/01/20 07:01:34;;;;;;;10.73;4.88;;;;;;;16.89;51.18;101154.16;4826914;29;20049;-80
2023/01/20 07:03:59;;;;;;;9.52;4.53;;;;;;;16.88;50.84;101155.03;4796782;29;20045;-79
2023/01/20 07:06:31;;;;;;;12.82;5.20;;;;;;;16.87;50.58;101151.53;4814706;29;20033;-80
2023/01/20 07:08:57;;;;;;;10.77;4.85;;;;;;;16.86;50.80;101155.03;4830287;29;20042;-79
2023/01/20 07:11:23;;;;;;;10.00;4.82;;;;;;;16.86;50.94;101168.03;4830225;29;20046;-79
2023/01/20 07:13:48;;;;;;;10.63;4.15;;;;;;;16.88;50.74;101161.09;4846913;29;20061;-80
2023/01/20 07:16:14;;;;;;;10.02;4.28;;;;;;;16.90;50.89;101161.97;4815048;29;20134;-79
2023/01/20 07:18:41;;;;;;;9.05;4.47;;;;;;;16.91;50.76;101163.66;4815324;29;20042;-79
2023/01/20 07:21:10;;;;;;;11.95;4.25;;;;;;;16.91;50.82;101168.88;4815077;29;20042;-79
2023/01/20 07:23:35;;;;;;;12.95;4.30;;;;;;;16.93;50.54;101169.75;4846968;29;20040;-80
2023/01/20 07:26:07;;;;;;;10.80;4.40;;;;;;;16.92;50.79;101165.41;4800115;29;20046;-80
2023/01/20 07:28:32;;;;;;;7.38;4.20;;;;;;;16.93;50.74;101166.28;4829904;29;20121;-81
2023/01/20 07:31:11;;;;;;;6.60;3.88;;;;;;;16.93;50.62;101169.75;4829941;29;20580;-80
2023/01/20 07:33:37;;;;;;;7.40;4.13;;;;;;;16.92;50.89;101165.41;4829799;29;20040;-80
2023/01/20 07:36:04;;;;;;;8.60;4.03;;;;;;;16.94;50.72;101157.59;4814934;29;20045;-80
2023/01/20 07:38:29;;;;;;;7.00;3.70;;;;;;;16.94;50.67;101160.19;4830222;29;20064;-80
2023/01/20 07:40:59;;;;;;;7.53;4.30;;;;;;;16.93;50.74;101168.88;4830190;29;20544;-81
2023/01/20 07:43:25;;;;;;;10.48;3.92;;;;;;;16.94;50.34;101163.69;4815158;29;20133;-79
2023/01/20 07:45:55;;;;;;;8.18;3.47;;;;;;;16.94;50.54;101171.50;4796813;29;20078;-80
2023/01/20 07:48:21;;;;;;;7.25;3.95;;;;;;;16.94;50.86;101168.88;4811850;29;20048;-79
2023/01/20 07:50:46;;;;;;;6.45;3.50;;;;;;;16.95;50.38;101182.75;4797163;29;20133;-80
2023/01/20 07:53:12;;;;;;;5.82;3.70;;;;;;;16.94;50.43;101186.19;4796835;29;20050;-79
2023/01/20 07:55:37;;;;;;;6.40;3.70;;;;;;;16.95;50.34;101200.94;4796475;29;20046;-80
2023/01/20 07:58:02;;;;;;;4.90;3.40;;;;;;;16.96;50.41;101213.06;4828092;29;20125;-80
2023/01/20 08:00:28;;;;;;;6.30;3.15;;;;;;;16.95;50.40;101208.75;4811846;29;20110;-80
2023/01/20 08:02:53;;;;;;;6.40;3.28;;;;;;;16.95;50.25;101203.53;4796611;29;20401;-79
2023/01/20 08:05:19;;;;;;;4.22;3.03;;;;;;;16.96;50.39;101205.25;4811729;29;20068;-79
2023/01/20 08:07:49;;;;;;;5.10;3.20;;;;;;;16.94;50.30;101210.47;4811514;29;20042;-78
2023/01/20 08:10:15;;;;;;;8.43;3.38;;;;;;;16.95;50.30;101207.00;4826541;29;20034;-80
2023/01/20 08:12:40;;;;;;;6.30;3.50;;;;;;;16.96;50.23;101205.25;4811073;29;20050;-78
2023/01/20 08:15:07;;;;;;;5.28;3.28;;;;;;;16.96;50.29;101203.56;4810985;29;20046;-80
2023/01/20 08:17:32;;;;;;;5.75;2.97;;;;;;;16.97;50.01;101205.25;4796498;29;20042;-78
2023/01/20 08:19:57;;;;;;;5.82;2.80;;;;;;;16.98;50.32;101206.13;4811372;29;20393;-80
2023/01/20 08:22:24;;;;;;;4.38;2.88;;;;;;;16.98;50.04;101216.53;4796508;29;20054;-80
2023/01/20 08:24:49;;;;;;;4.85;3.15;;;;;;;16.98;50.17;101208.72;4796382;29;20046;-79
2023/01/20 08:27:15;;;;;;;4.18;2.80;;;;;;;16.98;50.08;101206.97;4826014;29;20401;-78
2023/01/20 08:29:40;;;;;;;4.72;2.80;;;;;;;16.97;50.15;101205.25;4796236;29;20049;-78
2023/01/20 08:32:05;;;;;;;3.60;2.63;;;;;;;16.97;50.24;101210.47;4811389;29;20064;-80
2023/01/20 08:34:32;;;;;;;4.40;2.90;;;;;;;16.99;50.05;101213.06;4826539;29;20099;-79
2023/01/20 08:36:58;;;;;;;3.45;2.50;;;;;;;16.97;50.14;101215.66;4811399;29;20052;-78
2023/01/20 08:39:23;;;;;;;3.88;2.53;;;;;;;16.98;50.25;101212.19;4798675;29;20129;-79
2023/01/20 08:41:50;;;;;;;4.55;2.78;;;;;;;16.98;50.15;101217.38;4817431;29;20125;-79
2023/01/20 08:44:16;;;;;;;4.47;2.70;;;;;;;16.98;49.99;101219.97;4833058;29;20064;-79
2023/01/20 08:46:43;;;;;;;5.00;2.30;;;;;;;16.99;49.82;101215.66;4819279;29;20051;-78
2023/01/20 08:49:14;;;;;;;4.63;2.72;;;;;;;16.98;50.15;101222.59;4834934;29;20045;-78
2023/01/20 08:51:39;;;;;;;3.80;2.10;;;;;;;16.98;49.91;101238.19;4830896;29;20116;-80
2023/01/20 08:54:05;;;;;;;4.07;2.47;;;;;;;16.99;50.14;101236.47;4816027;29;20050;-80
2023/01/20 08:56:30;;;;;;;3.85;2.13;;;;;;;16.99;49.97;101234.72;4830465;29;20038;-80
2023/01/20 08:58:57;;;;;;;3.40;2.42;;;;;;;16.99;49.97;101239.94;4825685;29;20046;-86
2023/01/20 09:01:27;;;;;;;3.70;2.47;;;;;;;16.99;50.22;101239.94;4842077;29;20049;-85
2023/01/20 09:03:54;;;;;;;4.30;2.40;;;;;;;16.99;50.15;101245.13;4839759;29;20043;-84
2023/01/20 09:06:20;;;;;;;3.70;2.25;;;;;;;16.99;49.99;101260.72;4838891;29;20042;-84
2023/01/20 09:08:46;;;;;;;3.38;2.35;;;;;;;17.01;50.08;101255.53;4839532;29;20049;-85
2023/01/20 09:11:16;;;;;;;3.20;2.30;;;;;;;17.01;49.88;101258.13;4823510;29;20042;-85
2023/01/20 09:13:41;;;;;;;2.85;2.05;;;;;;;17.01;49.80;101258.13;4837724;29;20561;-85
2023/01/20 09:16:10;;;;;;;3.00;1.98;;;;;;;17.01;49.80;101271.13;4839044;29;20049;-86
2023/01/20 09:18:36;;;;;;;3.58;2.40;;;;;;;17.01;49.88;101273.75;4823124;29;20073;-85
2023/01/20 09:21:05;;;;;;;3.92;2.20;;;;;;;17.02;50.12;101270.25;4836862;29;20042;-85
2023/01/20 09:23:33;;;;;;;3.55;2.30;;;;;;;17.04;49.78;101273.72;4836793;29;20050;-84
2023/01/20 09:25:59;;;;;;;2.85;2.08;;;;;;;17.04;49.59;101276.31;4836051;29;20099;-84
2023/01/20 09:28:25;;;;;;;3.13;1.88;;;;;;;17.06;49.95;101269.38;4807221;29;20042;-84
2023/01/20 09:31:03;;;;;;;3.38;2.22;;;;;;;17.06;49.89;101275.44;4817847;29;20393;-82
2023/01/20 09:33:34;;;;;;;3.67;2.03;;;;;;;17.07;49.73;101273.72;4840599;29;20038;-85
2023/01/20 09:36:04;;;;;;;4.68;2.40;;;;;;;17.08;49.93;101275.47;4838624;29;20110;-84
2023/01/20 09:44:36;;;;;;;2.95;1.92;;;;;;;17.08;49.69;101288.47;4840281;29;20092;-84
2023/01/20 09:47:20;;;;;;;;;;;;;;;17.07;49.85;101291.91;4841537;29;20175;-84
2023/01/20 09:55:45;;;;;;;3.45;1.90;;;;;;;17.09;49.56;101292.78;4838620;29;20071;-85
2023/01/20 09:58:25;;;;;;;3.03;1.98;;;;;;;17.10;49.52;101294.53;4835237;29;20042;-83
2023/01/20 10:01:20;;;;;;;2.42;1.80;;;;;;;17.11;49.47;101305.78;4835475;29;20053;-84
2023/01/20 10:03:58;;;;;;;2.28;1.70;;;;;;;17.12;49.50;101304.94;4832477;29;20044;-85
2023/01/20 10:06:33;;;;;;;2.70;1.92;;;;;;;17.13;49.39;101299.72;4841551;29;20034;-85
2023/01/20 10:09:29;;;;;;;2.92;1.90;;;;;;;17.12;49.49;101304.94;4843622;29;20053;-85
2023/01/20 10:12:12;;;;;;;2.38;1.63;;;;;;;17.13;49.57;101309.25;4840752;29;20035;-85
2023/01/20 10:14:45;;;;;;;3.78;1.90;;;;;;;17.15;49.51;101312.72;4833739;29;20038;-84
2023/01/20 10:17:26;;;;;;;3.50;1.50;;;;;;;17.14;49.59;101311.88;4838539;29;20109;-85
2023/01/20 10:19:58;;;;;;;2.67;1.70;;;;;;;17.14;49.48;101314.47;4838406;29;20046;-84
2023/01/20 10:22:47;;;;;;;2.47;1.88;;;;;;;17.16;49.48;101317.03;4836709;29;20121;-85
2023/01/20 10:25:19;;;;;;;5.40;2.15;;;;;;;17.14;49.45;101311.88;4838427;29;20106;-84
2023/01/20 10:27:57;;;;;;;2.13;1.60;;;;;;;17.15;49.33;101313.59;4832698;29;20050;-84
2023/01/20 10:30:29;;;;;;;2.28;1.63;;;;;;;17.16;49.54;101315.34;4833429;29;20061;-85
2023/01/20 10:33:02;;;;;;;2.00;1.35;;;;;;;17.16;49.52;101314.44;4834679;29;20045;-84
2023/01/20 10:35:30;;;;;;;;;;;;;;;17.15;49.52;101316.19;4835200;29;20038;-85
2023/01/20 10:37:58;;;;;;;2.30;1.45;;;;;;;17.14;49.52;101300.59;4835897;29;19962;-84
2023/01/20 10:40:37;;;;;;;2.10;1.60;;;;;;;17.13;49.39;101294.50;4840634;29;20038;-84
2023/01/20 10:43:14;;;;;;;3.85;1.65;;;;;;;17.13;49.41;101294.50;4839743;29;20038;-84
2023/01/20 10:46:00;;;;;;;2.05;1.60;;;;;;;17.14;49.28;101298.00;4844634;29;20096;-85
2023/01/20 10:48:44;;;;;;;2.03;1.50;;;;;;;17.15;49.32;101300.59;4859641;29;20034;-85
2023/01/20 10:51:15;;;;;;;;;;;;;;;17.16;49.43;101302.34;4851755;29;20043;-85
2023/01/20 10:54:08;;;;;;;2.20;1.40;;;;;;;17.14;49.32;101316.22;4850637;29;19972;-84
2023/01/20 10:56:44;;;;;;;1.80;1.42;;;;;;;17.15;49.62;101316.19;4842049;29;20038;-84
2023/01/20 10:59:16;;;;;;;1.67;1.27;;;;;;;17.16;49.53;101314.44;4847130;29;20042;-85
2023/01/20 11:01:47;;;;;;;1.88;1.30;;;;;;;17.15;49.45;101317.94;4861071;29;20066;-84
2023/01/20 11:04:20;;;;;;;1.83;1.35;;;;;;;17.15;49.35;101313.59;4841334;29;20030;-84
2023/01/20 11:06:53;;;;;;;1.50;1.33;;;;;;;17.15;49.50;101321.38;4839553;29;20064;-84
2023/01/20 11:09:22;;;;;;;;;;;;;;;17.15;49.56;101317.94;4856336;29;20038;-85
2023/01/20 11:11:48;;;;;;;1.90;1.10;;;;;;;17.15;49.54;101320.53;4856050;29;19920;-83
2023/01/20 11:14:14;;;;;;;3.65;1.33;;;;;;;17.15;49.72;101323.13;4839873;29;20042;-84
2023/01/20 11:16:43;;;;;;;3.15;1.30;;;;;;;17.15;49.27;101321.38;4838605;29;20075;-84
2023/01/20 11:19:10;;;;;;;1.63;1.23;;;;;;;17.16;49.25;101322.25;4823627;29;20034;-83
2023/01/20 11:21:35;;;;;;;2.03;1.35;;;;;;;17.16;49.44;101317.03;4837441;29;20048;-85
2023/01/20 11:24:21;;;;;;;1.90;1.38;;;;;;;17.14;49.41;101332.69;4837727;29;20046;-84
2023/01/20 11:26:46;;;;;;;1.65;1.20;;;;;;;17.13;49.30;101325.72;4837240;29;20401;-84
2023/01/20 11:29:11;;;;;;;2.35;1.27;;;;;;;17.13;49.42;101328.31;4822569;29;20046;-84
2023/01/20 11:31:48;;;;;;;1.85;1.42;;;;;;;17.14;49.29;101318.81;4838810;29;20037;-83
2023/01/20 11:34:29;;;;;;;1.92;1.20;;;;;;;17.14;49.21;101313.63;4840069;29;20110;-83
2023/01/20 11:37:03;;;;;;;1.80;1.20;;;;;;;17.14;49.31;101311.00;4861203;29;20034;-82
2023/01/20 11:39:42;;;;;;;1.38;1.10;;;;;;;17.15;49.28;101315.34;4865409;29;20068;-83
2023/01/20 11:42:17;;;;;;;1.55;1.00;;;;;;;17.16;49.31;101317.03;4847473;29;20110;-83
2023/01/20 11:44:46;;;;;;;2.05;1.40;;;;;;;17.15;49.24;101311.00;4848189;29;20046;-84
2023/01/20 11:47:20;;;;;;;2.83;1.20;;;;;;;17.17;49.25;101314.47;4848511;29;20054;-84
2023/01/20 11:49:54;;;;;;;1.60;1.00;;;;;;;17.16;49.40;101324.84;4845892;29;20042;-84
2023/01/20 11:52:20;;;;;;;1.60;1.20;;;;;;;17.17;49.42;101318.78;4859928;29;20366;-84